createdAt,value
2022-09-15T00:02:19.922Z,54.25
2022-09-15T00:04:46.398Z,53.92
2022-09-15T00:07:12.761Z,54.24
2022-09-15T00:09:39.066Z,54.29
2022-09-15T00:12:05.534Z,54.53
2022-09-15T00:14:31.847Z,54.55
2022-09-15T00:16:58.211Z,54.62
2022-09-15T00:19:24.570Z,54.33
2022-09-15T00:21:50.889Z,54.37
2022-09-15T00:24:17.203Z,54.61
2022-09-15T00:26:44.196Z,54.37
2022-09-15T00:29:11.321Z,54.72
2022-09-15T00:31:38.353Z,54.80
2022-09-15T00:34:06.992Z,54.75
2022-09-15T00:36:33.280Z,55.11
2022-09-15T00:38:59.644Z,54.66
2022-09-15T00:41:26.002Z,54.77
2022-09-15T00:43:57.142Z,55.35
2022-09-15T00:46:27.442Z,55.00
2022-09-15T00:49:08.685Z,55.24
2022-09-15T00:51:47.008Z,54.21
2022-09-15T00:54:28.520Z,54.85
2022-09-15T00:56:58.612Z,54.90
2022-09-15T00:59:27.483Z,54.85
2022-09-15T01:02:05.710Z,54.95
2022-09-15T01:04:32.133Z,54.43
2022-09-15T01:07:03.450Z,54.78
2022-09-15T01:09:38.470Z,54.65
2022-09-15T01:12:05.077Z,54.55
2022-09-15T01:14:31.376Z,54.45
2022-09-15T01:17:08.256Z,54.87
2022-09-15T01:20:00.597Z,54.86
2022-09-15T01:23:03.880Z,54.93
2022-09-15T01:26:04.018Z,54.82
2022-09-15T01:29:06.206Z,54.80
2022-09-15T01:32:33.165Z,54.86
2022-09-15T01:35:22.730Z,54.92
2022-09-15T01:37:58.270Z,54.82
2022-09-15T01:40:29.671Z,54.39
2022-09-15T01:42:58.341Z,54.24
2022-09-15T01:45:30.415Z,54.78
2022-09-15T01:47:59.547Z,54.29
2022-09-15T01:50:34.003Z,54.68
2022-09-15T01:53:03.899Z,54.40
2022-09-15T01:55:44.199Z,54.77
2022-09-15T01:58:10.635Z,54.35
2022-09-15T02:00:42.714Z,54.65
2022-09-15T02:03:21.332Z,54.67
2022-09-15T02:06:01.868Z,54.44
2022-09-15T02:08:30.914Z,54.28
2022-09-15T02:11:09.572Z,54.49
2022-09-15T02:13:45.669Z,54.52
2022-09-15T02:16:19.845Z,54.50
2022-09-15T02:19:17.608Z,54.81
2022-09-15T02:22:13.237Z,54.66
2022-09-15T02:24:51.164Z,54.49
2022-09-15T02:27:24.052Z,54.78
2022-09-15T02:29:52.341Z,54.38
2022-09-15T02:32:23.122Z,54.42
2022-09-15T02:34:53.205Z,54.70
2022-09-15T02:37:22.875Z,54.30
2022-09-15T02:39:57.786Z,54.72
2022-09-15T02:42:26.148Z,54.74
2022-09-15T02:44:52.647Z,54.46
2022-09-15T02:47:19.412Z,54.67
2022-09-15T02:49:45.792Z,54.30
2022-09-15T02:52:12.525Z,54.70
2022-09-15T02:54:38.819Z,54.62
2022-09-15T02:57:05.474Z,54.95
2022-09-15T02:59:51.725Z,54.92
2022-09-15T03:02:20.130Z,55.05
2022-09-15T03:04:47.364Z,55.41
2022-09-15T03:07:13.747Z,54.59
2022-09-15T03:09:41.453Z,54.77
2022-09-15T03:12:07.851Z,54.67
2022-09-15T03:14:35.324Z,54.67
2022-09-15T03:17:02.780Z,54.69
2022-09-15T03:19:29.083Z,54.89
2022-09-15T03:21:55.385Z,55.02
2022-09-15T03:24:22.913Z,55.04
2022-09-15T03:26:49.706Z,54.77
2022-09-15T03:29:16.042Z,54.91
2022-09-15T03:31:42.435Z,55.02
2022-09-15T03:34:08.739Z,54.90
2022-09-15T03:36:35.107Z,54.95
2022-09-15T03:39:01.824Z,54.78
2022-09-15T03:41:29.164Z,54.74
2022-09-15T03:43:56.250Z,54.85
2022-09-15T03:46:22.535Z,54.85
2022-09-15T03:48:48.855Z,54.71
2022-09-15T03:51:15.170Z,54.70
2022-09-15T03:53:41.999Z,54.73
2022-09-15T03:56:20.119Z,55.13
2022-09-15T03:58:46.442Z,54.98
2022-09-15T04:01:13.421Z,54.89
2022-09-15T04:03:45.277Z,55.08
2022-09-15T04:06:15.071Z,55.20
2022-09-15T04:08:41.959Z,55.22
2022-09-15T04:11:10.527Z,55.16
2022-09-15T04:13:39.053Z,55.16
2022-09-15T04:16:06.575Z,55.19
2022-09-15T04:18:35.816Z,54.75
2022-09-15T04:21:05.766Z,55.02
2022-09-15T04:23:32.684Z,54.96
2022-09-15T04:26:01.015Z,55.01
2022-09-15T04:28:28.810Z,55.14
2022-09-15T04:31:04.329Z,55.40
2022-09-15T04:33:30.658Z,55.09
2022-09-15T04:36:10.157Z,55.53
2022-09-15T04:38:37.018Z,55.10
2022-09-15T04:41:04.592Z,55.06
2022-09-15T04:43:31.672Z,55.09
2022-09-15T04:45:57.959Z,55.00
2022-09-15T04:48:24.803Z,54.77
2022-09-15T04:50:51.764Z,55.02
2022-09-15T04:53:18.191Z,54.94
2022-09-15T04:55:44.645Z,55.11
2022-09-15T04:58:11.472Z,55.06
2022-09-15T05:00:43.525Z,55.04
2022-09-15T05:03:11.396Z,54.96
2022-09-15T05:05:38.198Z,54.77
2022-09-15T05:08:04.553Z,54.81
2022-09-15T05:10:30.902Z,54.84
2022-09-15T05:12:57.217Z,54.94
2022-09-15T05:15:24.104Z,54.92
2022-09-15T05:17:50.505Z,55.05
2022-09-15T05:20:17.557Z,55.01
2022-09-15T05:22:45.343Z,54.79
2022-09-15T05:25:11.686Z,55.07
2022-09-15T05:27:43.956Z,55.11
2022-09-15T05:30:35.985Z,54.96
2022-09-15T05:32:56.853Z,54.90
2022-09-15T05:35:23.546Z,55.07
2022-09-15T05:37:50.267Z,55.12
2022-09-15T05:40:16.746Z,55.06
2022-09-15T05:42:43.063Z,55.09
2022-09-15T05:45:09.997Z,55.02
2022-09-15T05:47:36.293Z,55.08
2022-09-15T05:50:02.608Z,55.08
2022-09-15T05:52:28.997Z,54.91
2022-09-15T05:54:58.950Z,55.16
2022-09-15T05:57:25.741Z,55.32
2022-09-15T05:59:52.043Z,55.09
2022-09-15T06:02:18.402Z,55.44
2022-09-15T06:04:44.763Z,55.43
2022-09-15T06:07:11.181Z,55.53
2022-09-15T06:09:38.006Z,55.32
2022-09-15T06:12:04.840Z,55.29
2022-09-15T06:14:31.129Z,55.48
2022-09-15T06:16:57.413Z,55.60
2022-09-15T06:23:10.585Z,55.33
2022-09-15T06:25:36.962Z,55.27
2022-09-15T06:28:03.263Z,55.15
2022-09-15T06:30:29.610Z,55.46
2022-09-15T06:32:55.918Z,55.05
2022-09-15T06:35:22.229Z,54.96
2022-09-15T06:37:48.530Z,55.05
2022-09-15T06:40:14.911Z,55.06
2022-09-15T06:42:41.286Z,55.51
2022-09-15T06:45:08.088Z,55.31
2022-09-15T06:47:34.397Z,55.30
2022-09-15T06:50:01.091Z,55.35
2022-09-15T06:52:27.569Z,55.40
2022-09-15T06:54:53.864Z,55.28
2022-09-15T06:57:20.310Z,55.43
2022-09-15T06:59:46.654Z,55.04
2022-09-15T07:02:13.051Z,55.43
2022-09-15T07:04:39.506Z,55.19
2022-09-15T07:07:05.783Z,55.22
2022-09-15T07:09:32.117Z,55.00
2022-09-15T07:11:58.690Z,55.12
2022-09-15T07:14:24.992Z,55.21
2022-09-15T07:16:51.358Z,54.97
2022-09-15T07:19:17.763Z,55.17
2022-09-15T07:21:44.066Z,55.23
2022-09-15T07:24:10.567Z,55.09
2022-09-15T07:26:37.700Z,55.01
2022-09-15T07:29:06.777Z,55.13
2022-09-15T07:31:35.305Z,55.22
2022-09-15T07:34:02.147Z,55.03
2022-09-15T07:36:29.207Z,54.88
2022-09-15T07:38:55.538Z,54.82
2022-09-15T07:41:27.657Z,55.05
2022-09-15T07:43:56.212Z,55.03
2022-09-15T07:46:23.395Z,55.13
2022-09-15T07:48:53.313Z,54.70
2022-09-15T07:51:20.045Z,54.63
2022-09-15T07:53:47.919Z,54.58
2022-09-15T07:56:16.045Z,54.46
2022-09-15T07:58:42.344Z,54.33
2022-09-15T08:01:16.704Z,54.33
2022-09-15T08:03:46.153Z,54.07
2022-09-15T08:06:13.453Z,53.61
2022-09-15T08:08:40.906Z,53.67
2022-09-15T08:11:17.678Z,53.80
2022-09-15T08:13:49.545Z,53.52
2022-09-15T08:16:19.462Z,52.95
2022-09-15T08:18:46.263Z,53.39
2022-09-15T08:21:15.982Z,52.99
2022-09-15T08:23:43.386Z,53.22
2022-09-15T08:26:14.432Z,53.12
2022-09-15T08:28:41.831Z,53.32
2022-09-15T08:31:11.258Z,53.01
2022-09-15T08:33:41.838Z,52.95
2022-09-15T08:36:11.421Z,52.92
2022-09-15T08:38:43.664Z,53.01
2022-09-15T08:41:40.009Z,52.31
2022-09-15T08:44:55.373Z,52.48
2022-09-15T08:47:35.460Z,51.85
2022-09-15T08:50:11.639Z,51.81
2022-09-15T08:52:45.769Z,51.53
2022-09-15T08:55:26.215Z,51.62
2022-09-15T08:57:53.775Z,52.19
2022-09-15T09:00:20.215Z,52.30
2022-09-15T09:03:06.559Z,52.08
2022-09-15T09:05:47.522Z,52.03
2022-09-15T09:08:30.559Z,51.25
2022-09-15T09:11:20.146Z,50.87
2022-09-15T09:13:56.998Z,50.15
2022-09-15T09:16:54.865Z,49.38
2022-09-15T09:19:32.055Z,50.07
2022-09-15T09:22:23.607Z,49.19
2022-09-15T09:24:52.977Z,49.04
2022-09-15T09:27:24.197Z,48.94
2022-09-15T09:30:18.383Z,48.77
2022-09-15T09:33:00.328Z,48.25
2022-09-15T09:35:38.520Z,47.60
2022-09-15T09:38:05.016Z,48.70
2022-09-15T09:40:32.695Z,48.88
2022-09-15T09:43:00.646Z,47.97
2022-09-15T09:45:27.051Z,48.41
2022-09-15T09:48:01.647Z,47.71
2022-09-15T09:50:33.143Z,47.47
2022-09-15T09:52:59.665Z,48.25
2022-09-15T09:55:27.737Z,48.06
2022-09-15T09:58:11.126Z,47.92
2022-09-15T10:00:40.280Z,47.23
2022-09-15T10:03:30.623Z,45.97
2022-09-15T10:06:06.379Z,46.19
2022-09-15T10:08:35.049Z,46.06
2022-09-15T10:11:05.820Z,45.44
2022-09-15T10:13:35.541Z,45.29
2022-09-15T10:16:06.165Z,44.25
2022-09-15T10:18:38.721Z,43.85
2022-09-15T10:21:08.172Z,44.83
2022-09-15T10:23:34.697Z,45.00
2022-09-15T10:26:16.296Z,43.77
2022-09-15T10:28:43.813Z,44.55
2022-09-15T10:31:13.476Z,44.53
2022-09-15T10:33:50.640Z,43.92
2022-09-15T10:36:28.470Z,43.59
2022-09-15T10:39:14.377Z,43.65
2022-09-15T10:41:56.692Z,44.12
2022-09-15T10:44:35.037Z,43.62
2022-09-15T10:47:43.172Z,43.25
2022-09-15T10:50:15.613Z,44.79
2022-09-15T10:53:02.930Z,43.09
2022-09-15T10:55:52.740Z,43.25
2022-09-15T10:58:46.906Z,43.16
2022-09-15T11:01:37.730Z,43.38
2022-09-15T11:04:19.161Z,43.98
2022-09-15T11:07:21.793Z,44.11
2022-09-15T11:10:02.768Z,43.98
2022-09-15T11:12:55.092Z,44.00
2022-09-15T11:15:40.184Z,44.51
2022-09-15T11:18:21.128Z,44.54
2022-09-15T11:21:11.812Z,44.21
2022-09-15T11:23:52.662Z,44.48
2022-09-15T11:26:38.272Z,44.20
2022-09-15T11:29:18.390Z,44.08
2022-09-15T11:31:48.446Z,44.65
2022-09-15T11:34:35.914Z,44.47
2022-09-15T11:37:21.085Z,44.02
2022-09-15T11:39:50.991Z,44.33
2022-09-15T11:42:25.018Z,43.79
2022-09-15T11:44:51.668Z,44.56
2022-09-15T11:47:40.161Z,43.90
2022-09-15T11:50:29.162Z,44.01
2022-09-15T11:53:16.582Z,43.59
2022-09-15T11:55:55.859Z,43.79
2022-09-15T11:58:53.879Z,43.63
2022-09-15T12:01:27.571Z,43.53
2022-09-15T12:04:02.377Z,43.70
2022-09-15T12:06:46.289Z,43.26
2022-09-15T12:09:17.908Z,43.08
2022-09-15T12:11:47.561Z,42.86
2022-09-15T12:14:17.707Z,42.27
2022-09-15T12:16:44.894Z,42.98
2022-09-15T12:19:18.842Z,42.52
2022-09-15T12:22:00.714Z,42.32
2022-09-15T12:24:37.802Z,41.98
2022-09-15T12:27:04.721Z,42.56
2022-09-15T12:29:41.189Z,41.84
2022-09-15T12:32:19.910Z,41.72
2022-09-15T12:35:17.571Z,41.92
2022-09-15T12:37:58.116Z,41.60
2022-09-15T12:40:35.679Z,41.87
2022-09-15T12:43:11.278Z,41.90
2022-09-15T12:45:38.839Z,42.37
2022-09-15T12:48:19.884Z,41.15
2022-09-15T12:51:07.034Z,41.72
2022-09-15T12:53:50.240Z,40.53
2022-09-15T12:56:26.005Z,40.79
2022-09-15T12:58:53.727Z,41.14
2022-09-15T13:01:23.066Z,40.63
2022-09-15T13:03:49.498Z,40.90
2022-09-15T13:06:29.007Z,40.79
2022-09-15T13:09:01.488Z,41.22
2022-09-15T13:11:37.403Z,41.45
2022-09-15T13:14:03.989Z,41.93
2022-09-15T13:16:32.642Z,41.35
2022-09-15T13:19:20.684Z,41.46
2022-09-15T13:22:00.246Z,41.24
2022-09-15T13:24:41.619Z,41.14
2022-09-15T13:27:08.911Z,41.58
2022-09-15T13:29:45.575Z,41.55
2022-09-15T13:32:20.929Z,41.61
2022-09-15T13:35:16.006Z,41.40
2022-09-15T13:38:13.555Z,40.76
2022-09-15T13:41:03.546Z,40.71
2022-09-15T13:43:59.686Z,40.63
2022-09-15T13:46:53.345Z,41.04
2022-09-15T13:49:28.715Z,41.08
2022-09-15T13:52:18.391Z,41.15
2022-09-15T13:55:07.660Z,40.84
2022-09-15T14:00:45.315Z,40.88
2022-09-15T14:03:17.251Z,41.16
2022-09-15T14:05:45.309Z,41.24
2022-09-15T14:08:17.447Z,40.88
2022-09-15T14:10:56.538Z,40.83
2022-09-15T14:13:26.564Z,40.86
2022-09-15T14:15:57.771Z,41.00
2022-09-15T14:18:24.394Z,41.34
2022-09-15T14:21:05.812Z,40.68
2022-09-15T14:23:32.782Z,40.79
2022-09-15T14:26:01.267Z,40.80
2022-09-15T14:28:33.671Z,40.73
2022-09-15T14:31:00.757Z,40.77
2022-09-15T14:33:39.150Z,40.57
2022-09-15T14:36:24.232Z,41.61
2022-09-15T14:39:08.718Z,40.75
2022-09-15T14:41:36.505Z,40.63
2022-09-15T14:45:55.118Z,40.03
2022-09-15T14:47:20.173Z,40.09
2022-09-15T14:49:46.950Z,40.39
2022-09-15T14:52:27.085Z,39.97
2022-09-15T14:55:00.511Z,40.09
2022-09-15T14:57:31.499Z,40.09
2022-09-15T15:00:03.423Z,40.17
2022-09-15T15:02:50.112Z,40.05
2022-09-15T15:05:24.688Z,40.01
2022-09-15T15:07:51.987Z,40.31
2022-09-15T15:10:25.858Z,40.06
2022-09-15T15:13:15.502Z,39.72
2022-09-15T15:15:42.554Z,39.48
2022-09-15T15:18:38.047Z,39.10
2022-09-15T15:21:05.408Z,39.11
2022-09-15T15:23:32.644Z,38.98
2022-09-15T15:26:35.548Z,39.09
2022-09-15T15:29:01.944Z,39.31
2022-09-15T15:31:29.558Z,39.11
2022-09-15T15:34:05.131Z,39.28
2022-09-15T15:36:34.125Z,38.88
2022-09-15T15:39:04.570Z,39.45
2022-09-15T15:41:38.585Z,39.37
2022-09-15T15:44:22.342Z,39.54
2022-09-15T15:47:00.094Z,39.49
2022-09-15T15:49:29.163Z,39.28
2022-09-15T15:51:56.956Z,39.02
2022-09-15T15:54:24.239Z,38.95
2022-09-15T15:56:51.762Z,38.96
2022-09-15T15:59:19.006Z,39.13
2022-09-15T16:01:50.891Z,38.80
2022-09-15T16:04:17.278Z,39.15
2022-09-15T16:06:44.839Z,39.20
2022-09-15T16:09:14.592Z,39.03
2022-09-15T16:11:42.581Z,39.30
2022-09-15T16:14:12.056Z,38.96
2022-09-15T16:16:38.397Z,39.09
2022-09-15T16:19:04.735Z,39.30
2022-09-15T16:21:39.401Z,38.47
2022-09-15T16:24:11.057Z,39.16
2022-09-15T16:26:39.236Z,38.86
2022-09-15T16:29:06.116Z,38.73
2022-09-15T16:31:33.596Z,38.97
2022-09-15T16:34:00.038Z,39.06
2022-09-15T16:36:26.999Z,38.96
2022-09-15T16:38:53.650Z,39.00
2022-09-15T16:41:25.639Z,38.78
2022-09-15T16:43:58.314Z,39.13
2022-09-15T16:46:25.081Z,39.19
2022-09-15T16:48:51.631Z,39.16
2022-09-15T16:51:28.849Z,39.24
2022-09-15T16:53:57.078Z,39.55
2022-09-15T16:56:23.376Z,39.61
2022-09-15T16:58:49.725Z,39.70
2022-09-15T17:01:21.142Z,39.42
2022-09-15T17:03:48.405Z,39.41
2022-09-15T17:06:17.619Z,39.47
2022-09-15T17:08:44.420Z,39.88
2022-09-15T17:11:16.533Z,40.02
2022-09-15T17:13:44.154Z,39.99
2022-09-15T17:16:12.315Z,40.06
2022-09-15T17:18:38.624Z,40.28
2022-09-15T17:21:05.026Z,40.51
2022-09-15T17:23:35.084Z,40.57
2022-09-15T17:26:05.134Z,40.69
2022-09-15T17:28:33.736Z,40.63
2022-09-15T17:31:01.143Z,41.03
2022-09-15T17:33:29.174Z,41.02
2022-09-15T17:35:56.061Z,41.11
2022-09-15T17:38:22.829Z,41.56
2022-09-15T17:40:50.857Z,41.39
2022-09-15T17:43:22.528Z,41.68
2022-09-15T17:45:49.915Z,41.92
2022-09-15T17:48:16.723Z,41.95
2022-09-15T17:50:45.002Z,42.10
2022-09-15T17:53:22.762Z,42.50
2022-09-15T17:55:50.529Z,42.40
2022-09-15T17:58:17.962Z,42.10
2022-09-15T18:00:45.240Z,42.51
2022-09-15T18:03:23.225Z,42.78
2022-09-15T18:05:50.665Z,42.67
2022-09-15T18:08:17.354Z,42.91
2022-09-15T18:10:44.221Z,43.02
2022-09-15T18:13:16.213Z,43.31
2022-09-15T18:15:43.038Z,43.09
2022-09-15T18:18:14.863Z,43.04
2022-09-15T18:20:41.306Z,43.19
2022-09-15T18:23:12.735Z,43.24
2022-09-15T18:25:39.104Z,43.11
2022-09-15T18:28:05.567Z,43.40
2022-09-15T18:30:37.045Z,43.14
2022-09-15T18:33:03.742Z,43.09
2022-09-15T18:35:30.195Z,43.12
2022-09-15T18:37:59.482Z,43.72
2022-09-15T18:40:27.342Z,43.29
2022-09-15T18:42:54.140Z,43.35
2022-09-15T18:45:20.481Z,43.58
2022-09-15T18:47:49.010Z,43.61
2022-09-15T18:50:16.507Z,43.83
2022-09-15T18:52:42.899Z,43.52
2022-09-15T18:55:13.019Z,43.98
2022-09-15T18:57:41.472Z,43.54
2022-09-15T19:00:11.842Z,43.59
2022-09-15T19:02:38.201Z,43.64
2022-09-15T19:05:05.572Z,43.71
2022-09-15T19:07:32.000Z,43.90
2022-09-15T19:09:58.886Z,44.30
2022-09-15T19:12:25.179Z,44.18
2022-09-15T19:14:51.512Z,44.17
2022-09-15T19:17:17.828Z,44.24
2022-09-15T19:19:46.211Z,44.30
2022-09-15T19:22:12.564Z,44.06
2022-09-15T19:24:38.882Z,44.05
2022-09-15T19:27:06.924Z,44.08
2022-09-15T19:29:35.626Z,44.06
2022-09-15T19:32:03.061Z,44.39
2022-09-15T19:34:29.394Z,44.22
2022-09-15T19:36:55.766Z,44.04
2022-09-15T19:39:22.465Z,44.67
2022-09-15T19:41:48.966Z,43.90
2022-09-15T19:44:16.041Z,43.96
2022-09-15T19:46:42.469Z,44.19
2022-09-15T19:49:09.794Z,43.86
2022-09-15T19:51:36.245Z,43.73
2022-09-15T19:54:02.636Z,43.96
2022-09-15T19:56:29.563Z,44.08
2022-09-15T19:58:57.792Z,43.78
2022-09-15T20:01:26.308Z,43.99
2022-09-15T20:03:54.507Z,43.96
2022-09-15T20:06:20.805Z,43.64
2022-09-15T20:08:47.694Z,44.03
2022-09-15T20:11:15.457Z,43.93
2022-09-15T20:13:43.440Z,44.20
2022-09-15T20:16:16.357Z,43.97
2022-09-15T20:18:42.932Z,44.40
2022-09-15T20:21:12.368Z,44.08
2022-09-15T20:23:48.533Z,44.15
2022-09-15T20:26:17.102Z,43.92
2022-09-15T20:28:43.788Z,43.97
2022-09-15T20:31:13.710Z,43.63
2022-09-15T20:33:42.070Z,43.77
2022-09-15T20:36:11.273Z,43.76
2022-09-15T20:38:38.981Z,43.95
2022-09-15T20:41:08.131Z,43.62
2022-09-15T20:43:39.703Z,43.90
2022-09-15T20:46:08.789Z,43.86
2022-09-15T20:48:38.498Z,43.91
2022-09-15T20:51:17.766Z,43.90
2022-09-15T20:53:46.463Z,43.84
2022-09-15T20:56:14.466Z,43.75
2022-09-15T20:58:41.509Z,43.70
2022-09-15T21:01:10.472Z,43.58
2022-09-15T21:03:39.012Z,43.82
2022-09-15T21:06:08.207Z,43.87
2022-09-15T21:08:36.286Z,43.74
2022-09-15T21:11:04.949Z,43.73
2022-09-15T21:13:32.145Z,43.88
2022-09-15T21:16:02.112Z,43.73
2022-09-15T21:18:34.531Z,43.77
2022-09-15T21:21:03.403Z,43.87
2022-09-15T21:23:37.741Z,44.05
2022-09-15T21:26:07.096Z,44.25
2022-09-15T21:28:33.876Z,44.14
2022-09-15T21:31:08.349Z,44.53
2022-09-15T21:33:36.118Z,44.26
2022-09-15T21:36:07.121Z,44.39
2022-09-15T21:38:38.053Z,44.58
2022-09-15T21:41:06.024Z,44.46
2022-09-15T21:43:35.780Z,44.12
2022-09-15T21:46:08.344Z,44.34
2022-09-15T21:48:35.415Z,44.26
2022-09-15T21:51:02.974Z,44.52
2022-09-15T21:53:29.590Z,44.60
2022-09-15T21:55:56.576Z,44.50
2022-09-15T21:58:26.149Z,44.47
2022-09-15T22:00:53.055Z,44.71
2022-09-15T22:03:19.457Z,44.58
2022-09-15T22:05:47.471Z,44.68
2022-09-15T22:08:16.117Z,44.56
2022-09-15T22:10:43.969Z,44.58
2022-09-15T22:13:11.348Z,44.56
2022-09-15T22:15:37.911Z,44.73
2022-09-15T22:18:04.496Z,44.67
2022-09-15T22:20:30.962Z,44.68
2022-09-15T22:23:00.557Z,44.97
2022-09-15T22:25:27.014Z,44.71
2022-09-15T22:27:53.317Z,44.92
2022-09-15T22:30:19.609Z,44.80
2022-09-15T22:32:45.938Z,44.69
2022-09-15T22:35:12.294Z,45.00
2022-09-15T22:37:38.601Z,44.83
2022-09-15T22:40:05.416Z,45.09
2022-09-15T22:42:31.746Z,44.98
2022-09-15T22:44:58.025Z,44.97
2022-09-15T22:47:24.308Z,45.06
2022-09-15T22:49:50.592Z,45.14
2022-09-15T22:52:16.943Z,44.98
2022-09-15T22:54:43.234Z,45.01
2022-09-15T22:57:09.566Z,45.01
2022-09-15T22:59:35.850Z,44.94
2022-09-15T23:02:02.232Z,45.21
2022-09-15T23:04:28.722Z,45.28
2022-09-15T23:06:55.081Z,45.26
2022-09-15T23:09:21.391Z,45.41
2022-09-15T23:11:47.691Z,45.38
2022-09-15T23:14:16.057Z,45.52
2022-09-15T23:16:42.959Z,45.43
2022-09-15T23:19:12.094Z,45.70
2022-09-15T23:21:38.413Z,45.58
2022-09-15T23:24:04.994Z,45.65
2022-09-15T23:26:31.371Z,45.84
2022-09-15T23:28:57.657Z,45.80
2022-09-15T23:31:24.094Z,45.74
2022-09-15T23:33:50.534Z,45.88
2022-09-15T23:36:19.410Z,45.98
2022-09-15T23:38:47.117Z,45.82
2022-09-15T23:43:40.630Z,45.91
2022-09-15T23:46:07.729Z,46.17
2022-09-15T23:48:34.055Z,46.19
2022-09-15T23:51:00.635Z,46.30
2022-09-15T23:53:27.118Z,46.40
2022-09-15T23:55:53.410Z,46.34
2022-09-15T23:58:19.723Z,46.36
